KIKK/IKK METAR and TAF weather

Enter ICAO airport designator
Station Type Date Time Source
KIKK METAR 2020/09/21 05:16 UTC NOAA

KIKK 210516Z AUTO 12004KT 10SM CLR 10/03 A3038 RMK AO2


Station Type Date Time Source
KIKK Decoded METAR 2020/09/21 05:16 UTC NOAA

Kankakee, Greater Kankakee Airport, IL, United States (KIKK) 41-04-17N 087-50-47W
Sep 21, 2020 - 01:16 AM EDT / 2020.09.21 0516 UTC
Wind: from the ESE (120 degrees) at 5 MPH (4 KT):0
Visibility: 10 mile(s):0
Sky conditions: clear
Temperature: 50 F (10 C)
Dew Point: 37 F (3 C)
Relative Humidity: 61%
Pressure (altimeter): 30.38 in. Hg (1028 hPa)
ob: KIKK 210516Z AUTO 12004KT 10SM CLR 10/03 A3038 RMK AO2
cycle: 5

Station Type Date Time Source
KIKK TAF UTC NOAA

Error!

Example: see airport list